Time;durP1;ratioP1;P1;durP2;ratioP2;P2;SDS_P1;SDS_P2;PMS_P1;PMS_P2;Temp;Humidity;BMP_temperature;BMP_pressure;BME280_temperature;BME280_humidity;BME280_pressure;Samples;Min_cycle;Max_cycle;Signal;HPM_P1;HPM_P2
2022/03/06 00:01:03;;;;;;;6.03;3.60;;;-0.10;81.70;;;;;;6277435;22;20701;-90
2022/03/06 00:03:29;;;;;;;5.57;3.93;;;0.00;82.00;;;;;;6278376;22;20554;-90
2022/03/06 00:05:54;;;;;;;9.67;4.23;;;0.00;82.10;;;;;;6276931;22;20154;-90
2022/03/06 00:08:20;;;;;;;7.63;3.70;;;0.00;82.00;;;;;;6278697;22;20203;-90
2022/03/06 00:10:46;;;;;;;10.67;4.37;;;0.00;81.90;;;;;;6277951;22;20190;-90
2022/03/06 00:13:14;;;;;;;10.00;3.90;;;0.00;81.60;;;;;;6276776;22;20637;-91
2022/03/06 00:15:41;;;;;;;7.53;4.10;;;0.00;81.90;;;;;;6276762;22;20236;-90
2022/03/06 00:18:07;;;;;;;11.63;4.67;;;0.00;82.10;;;;;;6276833;22;20152;-90
2022/03/06 00:20:32;;;;;;;8.30;4.43;;;0.00;82.20;;;;;;6276863;22;20154;-91
2022/03/06 00:22:58;;;;;;;6.73;4.37;;;0.00;82.30;;;;;;6276784;22;20691;-91
2022/03/06 00:25:23;;;;;;;6.63;4.13;;;0.00;82.30;;;;;;6276929;22;20150;-90
2022/03/06 00:27:49;;;;;;;6.43;4.93;;;0.00;82.30;;;;;;6278428;22;20155;-90
2022/03/06 00:30:15;;;;;;;8.20;4.30;;;0.00;82.60;;;;;;6276780;22;20157;-90
2022/03/06 00:32:41;;;;;;;6.20;4.27;;;-0.10;82.70;;;;;;6276635;22;20183;-90
2022/03/06 00:35:07;;;;;;;7.00;4.27;;;-0.10;82.90;;;;;;6276759;22;20162;-90
2022/03/06 00:37:33;;;;;;;8.80;4.07;;;-0.10;82.90;;;;;;6276676;22;20150;-90
2022/03/06 00:39:58;;;;;;;8.77;5.03;;;-0.10;82.90;;;;;;6276856;22;20152;-90
2022/03/06 00:42:24;;;;;;;8.67;4.50;;;0.00;82.80;;;;;;6276676;22;20189;-90
2022/03/06 00:44:50;;;;;;;8.63;3.97;;;0.00;82.50;;;;;;6276576;22;20178;-90
2022/03/06 00:47:16;;;;;;;9.47;4.73;;;0.00;82.40;;;;;;6276953;22;20154;-90
2022/03/06 00:49:42;;;;;;;6.73;4.23;;;0.00;82.30;;;;;;6277105;22;20181;-90
2022/03/06 00:52:07;;;;;;;11.20;4.30;;;0.00;82.20;;;;;;6276543;22;20255;-91
2022/03/06 00:54:33;;;;;;;8.23;4.47;;;0.00;82.20;;;;;;6276228;22;20241;-90
2022/03/06 00:56:59;;;;;;;5.90;4.20;;;0.00;82.10;;;;;;6276633;22;20185;-90
2022/03/06 00:59:24;;;;;;;8.00;4.40;;;0.00;82.20;;;;;;6276777;22;20186;-90
2022/03/06 01:01:50;;;;;;;7.07;4.83;;;0.00;82.50;;;;;;6276831;22;20157;-90
2022/03/06 01:04:15;;;;;;;7.47;3.87;;;0.00;82.70;;;;;;6276576;22;20174;-91
2022/03/06 01:06:41;;;;;;;7.70;4.20;;;0.00;82.60;;;;;;6276622;22;20234;-90
2022/03/06 01:09:06;;;;;;;7.83;4.37;;;0.00;82.50;;;;;;6276125;22;20476;-90
2022/03/06 01:11:35;;;;;;;9.13;3.90;;;0.00;82.60;;;;;;6276357;22;20217;-91
2022/03/06 01:14:01;;;;;;;9.10;4.80;;;0.00;82.70;;;;;;6277734;22;20174;-90
2022/03/06 01:16:26;;;;;;;9.20;4.30;;;0.00;82.70;;;;;;6277683;22;20151;-90
2022/03/06 01:18:52;;;;;;;7.73;5.50;;;0.00;82.80;;;;;;6276341;22;20495;-91
2022/03/06 01:21:17;;;;;;;6.77;4.20;;;0.00;83.00;;;;;;6276343;22;20155;-90
2022/03/06 01:23:43;;;;;;;6.13;4.60;;;0.00;83.10;;;;;;6276259;22;20504;-90
2022/03/06 01:26:08;;;;;;;8.63;4.67;;;0.00;83.00;;;;;;6276267;22;20167;-90
2022/03/06 01:28:34;;;;;;;6.40;4.30;;;0.00;82.50;;;;;;6276627;22;20467;-90
2022/03/06 01:31:00;;;;;;;5.93;4.20;;;0.00;82.10;;;;;;6277558;22;20187;-90
2022/03/06 01:33:25;;;;;;;5.30;3.57;;;0.00;82.10;;;;;;6277900;22;20167;-90
2022/03/06 01:35:51;;;;;;;5.90;4.03;;;0.00;82.00;;;;;;6276130;22;20154;-90
2022/03/06 01:38:16;;;;;;;5.63;3.90;;;0.00;82.10;;;;;;6276235;22;20157;-90
2022/03/06 01:40:42;;;;;;;4.67;3.93;;;0.00;82.00;;;;;;6276007;22;20209;-90
2022/03/06 01:43:07;;;;;;;6.43;3.67;;;0.00;82.10;;;;;;6275971;22;20175;-91
2022/03/06 01:45:33;;;;;;;6.97;3.97;;;0.00;82.20;;;;;;6277491;22;20157;-90
2022/03/06 01:47:59;;;;;;;5.90;3.73;;;0.00;82.20;;;;;;6276229;22;20155;-91
2022/03/06 01:50:35;;;;;;;5.07;3.40;;;0.00;82.40;;;;;;6277530;22;20154;-90
2022/03/06 01:53:04;;;;;;;7.33;4.37;;;0.00;82.50;;;;;;6276737;22;20174;-90
2022/03/06 01:55:30;;;;;;;5.03;3.90;;;0.00;82.60;;;;;;6276081;22;20143;-91
2022/03/06 01:57:58;;;;;;;7.30;3.97;;;-0.10;82.70;;;;;;6275878;22;20267;-90
2022/03/06 02:00:26;;;;;;;7.60;3.73;;;-0.10;82.70;;;;;;6275949;22;20705;-90
2022/03/06 02:02:53;;;;;;;6.40;4.00;;;-0.10;82.70;;;;;;6276258;22;20200;-90
2022/03/06 02:05:19;;;;;;;5.93;4.07;;;-0.10;82.80;;;;;;6276080;22;20500;-91
2022/03/06 02:07:45;;;;;;;9.57;4.27;;;-0.10;82.80;;;;;;6277639;22;20147;-91
2022/03/06 02:10:11;;;;;;;5.90;3.43;;;-0.10;82.60;;;;;;6277884;22;20162;-90
2022/03/06 02:12:37;;;;;;;6.63;3.47;;;-0.10;82.50;;;;;;6277347;22;20171;-91
2022/03/06 02:15:06;;;;;;;16.70;5.97;;;-0.10;82.40;;;;;;6277823;22;20191;-91
2022/03/06 02:17:32;;;;;;;8.97;4.17;;;-0.10;82.50;;;;;;6277202;22;20620;-91
2022/03/06 02:20:01;;;;;;;5.80;3.97;;;-0.10;82.30;;;;;;6276398;22;20158;-91
2022/03/06 02:22:29;;;;;;;7.90;4.07;;;-0.10;82.30;;;;;;6276412;22;20237;-91
2022/03/06 02:24:56;;;;;;;8.27;4.10;;;-0.10;82.40;;;;;;6276738;22;20617;-91
2022/03/06 02:27:22;;;;;;;6.37;3.80;;;-0.20;82.40;;;;;;6277642;22;20154;-91
2022/03/06 02:29:48;;;;;;;5.07;4.00;;;-0.10;82.30;;;;;;6277565;22;20163;-91
2022/03/06 02:32:16;;;;;;;16.40;6.53;;;-0.10;82.20;;;;;;6275726;22;20183;-91
2022/03/06 02:34:44;;;;;;;9.23;4.20;;;-0.10;82.00;;;;;;6275864;22;20487;-91
2022/03/06 02:37:10;;;;;;;24.63;11.07;;;-0.10;82.00;;;;;;6277158;22;20148;-90
2022/03/06 02:39:36;;;;;;;8.40;4.40;;;-0.10;81.80;;;;;;6275903;22;20158;-91
2022/03/06 02:42:03;;;;;;;15.77;5.07;;;-0.10;81.90;;;;;;6275710;22;20158;-91
2022/03/06 02:44:29;;;;;;;9.30;4.17;;;-0.10;81.80;;;;;;6275866;22;20280;-91
2022/03/06 02:46:55;;;;;;;11.27;4.43;;;-0.10;81.90;;;;;;6276393;22;20178;-91
2022/03/06 02:49:21;;;;;;;7.47;4.20;;;-0.10;82.10;;;;;;6276549;22;20594;-91
2022/03/06 02:51:47;;;;;;;4.60;3.43;;;-0.10;82.30;;;;;;6276434;22;20189;-91
2022/03/06 02:54:14;;;;;;;10.83;3.97;;;-0.10;82.20;;;;;;6278125;22;20526;-92
2022/03/06 02:56:40;;;;;;;6.77;4.40;;;-0.10;82.20;;;;;;6276289;22;20158;-91
2022/03/06 02:59:07;;;;;;;6.03;3.87;;;0.00;82.20;;;;;;6276907;22;20154;-90
2022/03/06 03:01:40;;;;;;;12.73;4.90;;;0.00;82.10;;;;;;6276819;22;20627;-91
2022/03/06 03:04:10;;;;;;;10.53;5.20;;;0.00;82.20;;;;;;6276046;22;20229;-91
2022/03/06 03:06:36;;;;;;;10.87;4.97;;;0.00;82.10;;;;;;6276080;22;20230;-90
2022/03/06 03:09:06;;;;;;;9.03;4.93;;;0.00;81.90;;;;;;6277192;22;20147;-90
2022/03/06 03:11:33;;;;;;;9.37;4.23;;;0.00;81.70;;;;;;6276101;22;20733;-91
2022/03/06 03:14:00;;;;;;;8.67;3.77;;;0.00;81.60;;;;;;6275694;22;20167;-91
2022/03/06 03:16:25;;;;;;;8.67;4.17;;;0.00;81.80;;;;;;6276342;22;20153;-91
2022/03/06 03:18:51;;;;;;;7.93;4.60;;;0.00;81.80;;;;;;6275808;22;20159;-91
2022/03/06 03:21:16;;;;;;;8.67;4.83;;;0.00;81.50;;;;;;6276895;22;20154;-91
2022/03/06 03:23:42;;;;;;;6.07;4.67;;;0.00;81.20;;;;;;6275227;22;20202;-90
2022/03/06 03:26:07;;;;;;;9.87;4.87;;;0.00;81.20;;;;;;6275285;22;20161;-91
2022/03/06 03:28:33;;;;;;;11.13;4.93;;;0.00;81.10;;;;;;6275910;22;20161;-91
2022/03/06 03:30:58;;;;;;;8.50;4.17;;;0.00;81.00;;;;;;6275622;22;20249;-90
2022/03/06 03:33:24;;;;;;;10.83;4.77;;;0.00;80.70;;;;;;6276764;22;20226;-91
2022/03/06 03:35:50;;;;;;;6.87;4.23;;;0.00;80.50;;;;;;6277402;22;20227;-90
2022/03/06 03:38:15;;;;;;;5.80;4.07;;;0.00;80.30;;;;;;6277247;22;20488;-91
2022/03/06 03:40:41;;;;;;;6.67;4.47;;;0.00;80.10;;;;;;6278804;22;20149;-91
2022/03/06 03:43:06;;;;;;;6.77;4.07;;;0.10;80.10;;;;;;6277222;22;20167;-91
2022/03/06 03:45:32;;;;;;;7.33;3.93;;;0.00;80.40;;;;;;6277286;22;20158;-90
2022/03/06 03:47:57;;;;;;;10.13;4.50;;;0.00;80.40;;;;;;6278787;22;20151;-91
2022/03/06 03:50:23;;;;;;;8.47;4.40;;;0.10;80.20;;;;;;6277520;22;20154;-91
2022/03/06 03:52:48;;;;;;;5.93;4.30;;;0.00;80.30;;;;;;6278731;22;20144;-91
2022/03/06 03:55:14;;;;;;;7.87;4.70;;;0.00;80.40;;;;;;6280639;22;20279;-90
2022/03/06 03:57:40;;;;;;;7.17;4.93;;;0.00;80.50;;;;;;6282032;22;20157;-91
2022/03/06 04:00:06;;;;;;;5.20;4.20;;;0.00;80.70;;;;;;6282298;22;20154;-90
2022/03/06 04:02:32;;;;;;;6.30;3.90;;;0.00;80.80;;;;;;6281212;22;20157;-90
2022/03/06 04:04:58;;;;;;;7.10;3.80;;;0.00;81.00;;;;;;6282068;22;20212;-90
2022/03/06 04:07:23;;;;;;;6.03;3.97;;;0.00;80.90;;;;;;6280507;22;20190;-90
2022/03/06 04:09:49;;;;;;;5.53;4.20;;;0.00;81.00;;;;;;6282147;22;20150;-90
2022/03/06 04:12:14;;;;;;;8.77;4.27;;;0.00;81.10;;;;;;6282187;22;20172;-90
2022/03/06 04:14:40;;;;;;;6.40;3.90;;;0.00;81.20;;;;;;6282776;22;20695;-90
2022/03/06 04:17:06;;;;;;;5.27;3.80;;;0.00;81.30;;;;;;6282556;22;20154;-89
2022/03/06 04:19:31;;;;;;;9.17;4.97;;;0.00;81.40;;;;;;6282265;22;20152;-90
2022/03/06 04:21:57;;;;;;;7.33;3.93;;;0.00;81.40;;;;;;6282574;22;20167;-90
2022/03/06 04:24:23;;;;;;;5.07;3.80;;;0.00;81.40;;;;;;6280267;22;20249;-90
2022/03/06 04:26:49;;;;;;;5.40;3.70;;;0.00;81.40;;;;;;6282172;22;20146;-90
2022/03/06 04:29:14;;;;;;;8.03;4.50;;;0.10;81.20;;;;;;6281780;22;20233;-90
2022/03/06 04:31:40;;;;;;;9.63;4.70;;;0.10;81.20;;;;;;6281846;22;20149;-90
2022/03/06 04:34:06;;;;;;;7.60;4.13;;;0.10;80.90;;;;;;6281781;22;20171;-90
2022/03/06 04:36:31;;;;;;;6.60;4.17;;;0.10;80.80;;;;;;6281495;22;20158;-90
2022/03/06 04:38:58;;;;;;;13.00;4.30;;;0.10;80.70;;;;;;6280403;22;20158;-90
2022/03/06 04:41:24;;;;;;;9.53;4.33;;;0.10;80.70;;;;;;6282191;22;20183;-90
2022/03/06 04:43:52;;;;;;;7.43;3.80;;;0.10;80.90;;;;;;6281200;22;20254;-90
2022/03/06 04:46:18;;;;;;;9.90;4.60;;;0.10;81.00;;;;;;6280009;22;20155;-90
2022/03/06 04:48:43;;;;;;;7.23;4.10;;;0.10;81.10;;;;;;6279983;22;20158;-90
2022/03/06 04:51:09;;;;;;;6.57;3.80;;;0.10;81.10;;;;;;6281556;22;20151;-90
2022/03/06 04:53:35;;;;;;;6.27;4.07;;;0.10;81.10;;;;;;6281327;22;20170;-90
2022/03/06 04:56:00;;;;;;;7.37;4.97;;;0.10;81.30;;;;;;6281677;22;20476;-90
2022/03/06 04:58:26;;;;;;;13.20;5.37;;;0.10;81.20;;;;;;6279976;22;20160;-90
2022/03/06 05:00:52;;;;;;;5.37;4.27;;;0.10;81.20;;;;;;6281309;22;20178;-90
2022/03/06 05:03:17;;;;;;;5.93;4.10;;;0.10;81.30;;;;;;6281721;22;20144;-90
2022/03/06 05:05:43;;;;;;;4.57;3.80;;;0.10;81.40;;;;;;6280333;22;20186;-90
2022/03/06 05:08:08;;;;;;;5.63;4.40;;;0.10;81.40;;;;;;6279800;22;20161;-90
2022/03/06 05:10:35;;;;;;;4.87;4.00;;;0.10;81.30;;;;;;6281505;22;20149;-89
2022/03/06 05:13:02;;;;;;;6.50;3.97;;;0.20;81.30;;;;;;6278649;22;20231;-91
2022/03/06 05:15:27;;;;;;;7.17;4.40;;;0.20;81.10;;;;;;6279502;22;20241;-89
2022/03/06 05:17:53;;;;;;;6.70;4.33;;;0.20;80.90;;;;;;6279117;22;20156;-90
2022/03/06 05:20:18;;;;;;;6.70;4.10;;;0.20;80.40;;;;;;6280629;22;20173;-90
2022/03/06 05:22:44;;;;;;;8.20;3.90;;;0.20;80.40;;;;;;6279095;22;20185;-90
2022/03/06 05:25:10;;;;;;;4.67;3.70;;;0.20;80.40;;;;;;6278834;22;20200;-90
2022/03/06 05:27:36;;;;;;;7.33;4.47;;;0.20;80.50;;;;;;6280671;22;20610;-90
2022/03/06 05:30:04;;;;;;;5.37;4.30;;;0.20;80.20;;;;;;6280735;22;20220;-90
2022/03/06 05:32:29;;;;;;;6.53;4.60;;;0.20;80.00;;;;;;6279746;22;20206;-91
2022/03/06 05:34:55;;;;;;;10.10;5.50;;;0.20;80.20;;;;;;6278702;22;20172;-90
2022/03/06 05:37:20;;;;;;;5.03;4.37;;;0.20;80.10;;;;;;6276663;22;20161;-90
2022/03/06 05:39:46;;;;;;;6.17;3.87;;;0.20;80.20;;;;;;6279527;22;20150;-91
2022/03/06 05:42:11;;;;;;;9.53;4.73;;;0.20;80.10;;;;;;6277596;22;20240;-90
2022/03/06 05:44:37;;;;;;;4.43;4.03;;;0.20;80.00;;;;;;6278716;22;20182;-89
2022/03/06 05:47:03;;;;;;;7.43;4.20;;;0.30;79.90;;;;;;6280413;22;20173;-90
2022/03/06 05:49:29;;;;;;;11.77;4.27;;;0.20;79.80;;;;;;6278280;22;20157;-90
2022/03/06 05:51:54;;;;;;;6.80;5.10;;;0.20;79.90;;;;;;6278337;22;20162;-91
2022/03/06 05:54:20;;;;;;;14.97;5.43;;;0.20;79.90;;;;;;6278103;22;20521;-90
2022/03/06 05:56:45;;;;;;;12.40;5.57;;;0.20;80.10;;;;;;6279022;22;20166;-90
2022/03/06 05:59:11;;;;;;;5.87;4.40;;;0.20;80.10;;;;;;6279838;22;20160;-91
2022/03/06 06:01:38;;;;;;;6.23;4.63;;;0.20;80.30;;;;;;6279450;22;20166;-90
2022/03/06 06:04:03;;;;;;;5.70;4.57;;;0.10;80.40;;;;;;6279638;22;20167;-90
2022/03/06 06:06:29;;;;;;;16.50;6.00;;;0.20;80.50;;;;;;6278364;22;20151;-90
2022/03/06 06:08:55;;;;;;;6.33;4.17;;;0.20;80.50;;;;;;6276857;22;20558;-92
2022/03/06 06:11:22;;;;;;;8.70;4.77;;;0.20;80.70;;;;;;6277389;22;20218;-91
2022/03/06 06:13:48;;;;;;;10.23;5.43;;;0.20;80.70;;;;;;6279401;22;20196;-90
2022/03/06 06:16:14;;;;;;;9.17;5.57;;;0.10;80.70;;;;;;6276752;22;20150;-90
2022/03/06 06:18:40;;;;;;;6.20;5.03;;;0.10;80.60;;;;;;6276757;22;20155;-90
2022/03/06 06:21:09;;;;;;;6.90;5.40;;;0.20;79.90;;;;;;6282170;22;20175;-92
2022/03/06 06:23:44;;;;;;;8.27;5.50;;;0.20;78.90;;;;;;6280898;22;20178;-91
2022/03/06 06:26:18;;;;;;;5.17;4.67;;;0.30;78.20;;;;;;6284176;22;20218;-92
2022/03/06 06:28:43;;;;;;;9.77;5.33;;;0.30;77.80;;;;;;6296438;22;20155;-91
2022/03/06 06:31:09;;;;;;;7.30;4.53;;;0.30;77.00;;;;;;6286016;22;20482;-91
2022/03/06 06:33:35;;;;;;;7.47;5.47;;;0.40;76.70;;;;;;6276825;22;20171;-90
2022/03/06 06:36:02;;;;;;;11.73;4.83;;;0.40;76.30;;;;;;6276872;22;20161;-91
2022/03/06 06:38:28;;;;;;;8.83;5.03;;;0.50;76.20;;;;;;6277206;22;20180;-89
2022/03/06 06:40:54;;;;;;;11.93;5.33;;;0.50;76.10;;;;;;6278619;22;20170;-91
2022/03/06 06:43:20;;;;;;;9.17;5.20;;;0.50;76.20;;;;;;6276312;22;20285;-90
2022/03/06 06:45:46;;;;;;;6.73;4.60;;;0.50;76.10;;;;;;6277836;22;20153;-90
2022/03/06 06:48:12;;;;;;;9.67;5.97;;;0.50;76.20;;;;;;6276417;22;20151;-90
2022/03/06 06:50:37;;;;;;;9.13;5.30;;;0.50;76.40;;;;;;6277867;22;20202;-90
2022/03/06 06:53:03;;;;;;;6.10;4.90;;;0.50;76.40;;;;;;6278318;22;20568;-90
2022/03/06 06:55:29;;;;;;;8.30;4.60;;;0.50;76.20;;;;;;6278186;22;20637;-91
2022/03/06 06:57:55;;;;;;;9.90;4.87;;;0.50;76.00;;;;;;6276457;22;20159;-90
2022/03/06 07:00:20;;;;;;;7.43;5.07;;;0.60;75.90;;;;;;6276254;22;20156;-91
2022/03/06 07:02:46;;;;;;;7.30;4.57;;;0.60;75.90;;;;;;6277358;22;20257;-91
2022/03/06 07:05:12;;;;;;;6.73;4.43;;;0.60;76.00;;;;;;6276657;22;20177;-90
2022/03/06 07:07:38;;;;;;;8.43;4.40;;;0.60;75.90;;;;;;6277080;22;20149;-89
2022/03/06 07:10:05;;;;;;;10.87;5.57;;;0.60;75.90;;;;;;6278552;22;20218;-89
2022/03/06 07:12:30;;;;;;;7.33;4.83;;;0.60;76.10;;;;;;6277968;22;20166;-89
2022/03/06 07:14:56;;;;;;;6.07;4.57;;;0.60;76.40;;;;;;6279353;22;20173;-90
2022/03/06 07:17:22;;;;;;;9.33;4.27;;;0.60;76.70;;;;;;6278638;22;20150;-89
2022/03/06 07:19:47;;;;;;;5.87;4.20;;;0.60;76.70;;;;;;6278420;22;20497;-90
2022/03/06 07:22:15;;;;;;;6.97;4.13;;;0.70;76.50;;;;;;6276276;22;20273;-90
2022/03/06 07:24:41;;;;;;;8.30;4.47;;;0.70;76.50;;;;;;6278169;22;20211;-91
2022/03/06 07:27:06;;;;;;;7.30;4.20;;;0.70;76.70;;;;;;6279920;22;20174;-90
2022/03/06 07:29:44;;;;;;;12.77;4.60;;;0.80;77.00;;;;;;6288983;22;20157;-92
2022/03/06 07:32:16;;;;;;;6.63;4.83;;;0.80;77.00;;;;;;6285495;22;20162;-93
2022/03/06 07:34:47;;;;;;;7.17;5.50;;;0.80;77.00;;;;;;6279491;22;20206;-93
2022/03/06 07:37:16;;;;;;;7.27;4.83;;;0.80;77.00;;;;;;6279506;22;20158;-93
2022/03/06 07:39:42;;;;;;;6.33;4.63;;;0.90;76.70;;;;;;6279869;22;20249;-93
2022/03/06 07:42:07;;;;;;;6.77;4.60;;;0.90;76.60;;;;;;6279591;22;20228;-93
2022/03/06 07:44:36;;;;;;;9.00;5.20;;;0.90;76.70;;;;;;6279796;22;20178;-93
2022/03/06 07:47:08;;;;;;;10.27;7.03;;;0.90;76.60;;;;;;6279622;22;20160;-93
2022/03/06 07:49:36;;;;;;;10.83;7.30;;;0.80;76.50;;;;;;6280074;22;20317;-93
2022/03/06 07:52:08;;;;;;;9.90;7.43;;;0.80;77.60;;;;;;6279715;22;20284;-94
2022/03/06 07:54:37;;;;;;;19.23;9.27;;;0.80;77.80;;;;;;6279810;22;20264;-93
2022/03/06 07:57:05;;;;;;;19.23;8.70;;;0.90;77.40;;;;;;6280202;22;20662;-93
2022/03/06 07:59:43;;;;;;;20.50;8.77;;;0.90;76.20;;;;;;6280357;22;20524;-93
2022/03/06 08:02:12;;;;;;;14.00;6.83;;;0.90;75.60;;;;;;6280504;22;20177;-93
2022/03/06 08:04:44;;;;;;;6.97;4.90;;;1.00;75.30;;;;;;6281633;22;20268;-93
2022/03/06 08:07:23;;;;;;;6.40;4.43;;;0.90;74.20;;;;;;6281777;22;20157;-93
2022/03/06 08:09:48;;;;;;;5.13;4.17;;;1.00;72.20;;;;;;6285023;22;20131;-93
2022/03/06 08:12:38;;;;;;;9.10;5.90;;;1.20;69.90;;;;;;6283776;22;20181;-93
2022/03/06 08:15:13;;;;;;;9.97;7.00;;;1.30;68.80;;;;;;6283048;22;20264;-93
2022/03/06 08:17:48;;;;;;;8.77;5.23;;;1.40;68.60;;;;;;6286657;22;20130;-94
2022/03/06 08:20:14;;;;;;;13.27;4.97;;;1.50;67.50;;;;;;6288081;22;20144;-94
2022/03/06 08:22:45;;;;;;;4.20;3.50;;;1.60;67.00;;;;;;6286308;22;20178;-93
2022/03/06 08:25:15;;;;;;;3.83;3.50;;;1.70;66.50;;;;;;6286935;22;20189;-93
2022/03/06 08:27:49;;;;;;;8.27;3.43;;;1.70;65.80;;;;;;6287128;22;20156;-93
2022/03/06 08:30:15;;;;;;;7.13;3.33;;;1.80;66.50;;;;;;6287591;22;20146;-93
2022/03/06 08:32:41;;;;;;;3.63;3.27;;;1.80;65.00;;;;;;6287459;22;20163;-93
2022/03/06 08:35:16;;;;;;;4.67;3.73;;;1.90;66.00;;;;;;6285793;22;20188;-93
2022/03/06 08:37:41;;;;;;;8.20;4.10;;;2.00;64.70;;;;;;6286363;22;20155;-93
2022/03/06 08:40:10;;;;;;;7.03;3.90;;;1.90;65.40;;;;;;6290318;22;20157;-94
2022/03/06 08:42:39;;;;;;;7.80;3.87;;;2.10;65.20;;;;;;6289159;22;20181;-93
2022/03/06 08:45:08;;;;;;;6.10;3.57;;;2.30;64.40;;;;;;6292647;22;20173;-93
2022/03/06 08:47:39;;;;;;;4.07;3.40;;;2.30;63.30;;;;;;6288711;22;20209;-94
2022/03/06 08:50:08;;;;;;;11.43;3.43;;;2.30;63.20;;;;;;6293561;22;20150;-93
2022/03/06 08:52:36;;;;;;;4.60;3.10;;;2.30;63.30;;;;;;6289225;22;20195;-93
2022/03/06 08:55:27;;;;;;;10.23;3.50;;;2.40;63.90;;;;;;6291678;22;20178;-93
2022/03/06 08:57:52;;;;;;;7.10;5.23;;;2.40;62.90;;;;;;6276768;22;20165;-93
2022/03/06 09:00:18;;;;;;;6.97;3.17;;;2.40;63.10;;;;;;6290450;22;20174;-93
2022/03/06 09:02:46;;;;;;;6.33;3.27;;;2.40;61.50;;;;;;6290734;22;20174;-94
2022/03/06 09:05:13;;;;;;;5.80;3.87;;;2.50;63.10;;;;;;6291140;22;20181;-93
2022/03/06 09:07:38;;;;;;;7.20;3.60;;;2.60;63.00;;;;;;6291233;22;20153;-94
2022/03/06 09:10:09;;;;;;;5.60;4.00;;;2.60;62.40;;;;;;6292980;22;20185;-94
2022/03/06 09:12:39;;;;;;;9.07;4.20;;;2.80;62.70;;;;;;6296155;22;20155;-94
2022/03/06 09:15:13;;;;;;;5.77;3.73;;;2.80;62.60;;;;;;6296133;22;20204;-94
2022/03/06 09:17:42;;;;;;;37.63;24.50;;;2.90;64.20;;;;;;6293452;22;20153;-94
2022/03/06 09:20:12;;;;;;;6.30;3.60;;;3.00;62.00;;;;;;6297731;22;20158;-94
2022/03/06 09:22:37;;;;;;;18.03;8.70;;;3.10;61.50;;;;;;6299669;22;20206;-93
2022/03/06 09:25:06;;;;;;;6.07;3.47;;;3.20;61.70;;;;;;6296182;22;20178;-93
2022/03/06 09:27:40;;;;;;;4.30;3.43;;;3.30;62.20;;;;;;6296796;22;20165;-94
2022/03/06 09:30:09;;;;;;;20.60;12.77;;;3.30;60.90;;;;;;6298287;22;20209;-94
2022/03/06 09:32:38;;;;;;;78.57;37.17;;;3.30;59.90;;;;;;6303370;22;20162;-94
2022/03/06 09:35:14;;;;;;;17.27;10.53;;;3.50;60.80;;;;;;6301637;22;20238;-94
2022/03/06 09:37:40;;;;;;;29.23;16.70;;;3.60;61.70;;;;;;6303343;22;20155;-93
2022/03/06 09:40:12;;;;;;;5.83;4.43;;;3.80;62.10;;;;;;6301399;22;20153;-92
2022/03/06 09:43:02;;;;;;;4.47;3.07;;;3.80;59.80;;;;;;6303378;22;20189;-93
2022/03/06 09:45:32;;;;;;;5.27;3.57;;;3.60;59.30;;;;;;6300570;22;20182;-94
2022/03/06 09:48:04;;;;;;;11.40;6.43;;;3.70;60.40;;;;;;6302851;22;20146;-94
2022/03/06 09:50:38;;;;;;;6.27;3.30;;;3.50;59.40;;;;;;6304918;22;20155;-94
2022/03/06 09:53:21;;;;;;;8.87;4.00;;;3.40;59.50;;;;;;6302413;22;20131;-93
2022/03/06 09:55:53;;;;;;;13.23;8.00;;;3.60;61.10;;;;;;6299544;22;20155;-93
2022/03/06 09:58:29;;;;;;;5.07;3.23;;;3.80;61.50;;;;;;6302024;22;20184;-94
2022/03/06 10:00:57;;;;;;;6.50;3.10;;;3.90;60.90;;;;;;6303211;22;20203;-92
2022/03/06 10:03:26;;;;;;;7.13;3.63;;;4.00;60.00;;;;;;6299350;22;20231;-94
2022/03/06 10:05:55;;;;;;;4.67;4.00;;;4.40;60.50;;;;;;6301274;22;20160;-93
2022/03/06 10:08:30;;;;;;;4.90;2.87;;;4.50;59.70;;;;;;6303700;22;20167;-94
2022/03/06 10:11:06;;;;;;;3.50;2.73;;;4.60;59.70;;;;;;6302891;22;20170;-94
2022/03/06 10:13:43;;;;;;;3.90;2.80;;;4.40;57.90;;;;;;6301571;22;22001;-93
2022/03/06 10:16:26;;;;;;;5.40;2.80;;;4.20;58.60;;;;;;6300493;22;20158;-94
2022/03/06 10:19:05;;;;;;;3.97;3.07;;;4.30;59.20;;;;;;6298096;22;20154;-94
2022/03/06 10:21:34;;;;;;;6.70;3.40;;;4.50;59.10;;;;;;6303445;22;20271;-93
2022/03/06 10:24:08;;;;;;;6.30;4.57;;;4.50;59.10;;;;;;6301260;22;20186;-94
2022/03/06 10:26:39;;;;;;;4.73;3.27;;;4.80;60.50;;;;;;6303435;22;20147;-93
2022/03/06 10:29:14;;;;;;;8.60;3.60;;;4.50;58.10;;;;;;6300097;22;20173;-94
2022/03/06 10:32:00;;;;;;;7.70;4.90;;;4.20;58.30;;;;;;6302153;22;20155;-93
2022/03/06 10:34:40;;;;;;;6.83;3.20;;;4.30;59.40;;;;;;6302183;22;20154;-94
2022/03/06 10:37:15;;;;;;;5.80;3.27;;;4.50;59.50;;;;;;6302989;22;20177;-93
2022/03/06 10:40:02;;;;;;;5.13;3.17;;;4.40;59.30;;;;;;6302751;22;20136;-94
2022/03/06 10:42:39;;;;;;;24.27;10.90;;;4.20;59.60;;;;;;6301862;22;20170;-93
2022/03/06 10:47:52;;;;;;;21.90;11.40;;;4.50;61.60;;;;;;6364067;22;20258;-92
2022/03/06 10:50:31;;;;;;;5.57;3.47;;;4.90;61.50;;;;;;6338152;22;20174;-91
2022/03/06 10:53:10;;;;;;;4.00;2.83;;;5.10;58.40;;;;;;6339333;22;20155;-93
2022/03/06 10:55:45;;;;;;;7.13;4.00;;;4.90;57.80;;;;;;6337007;22;20187;-94
2022/03/06 11:09:46;;;;;;;14.87;10.17;;;5.00;58.50;;;;;;6115971;22;2965645;-91
2022/03/06 11:12:22;;;;;;;9.80;4.20;;;5.40;58.50;;;;;;6107452;23;20168;-92
2022/03/06 11:14:59;;;;;;;8.73;3.97;;;5.70;57.90;;;;;;6089181;23;20214;-92
2022/03/06 11:17:32;;;;;;;7.90;4.80;;;6.00;58.70;;;;;;6078812;23;20194;-92
2022/03/06 11:20:07;;;;;;;4.90;3.13;;;6.10;56.60;;;;;;6079780;23;20166;-91
2022/03/06 11:23:05;;;;;;;5.60;3.80;;;5.80;56.60;;;;;;6104420;23;20123;-91
2022/03/06 11:25:42;;;;;;;5.83;3.60;;;5.70;56.80;;;;;;6079650;23;20189;-91
2022/03/06 11:28:43;;;;;;;3.80;3.40;;;5.90;56.60;;;;;;6079761;23;20139;-91
2022/03/06 11:31:14;;;;;;;7.83;3.40;;;5.80;56.10;;;;;;6079218;23;20170;-91
2022/03/06 11:34:12;;;;;;;6.03;3.60;;;5.90;59.20;;;;;;6079657;23;20218;-90
2022/03/06 11:36:52;;;;;;;4.53;3.17;;;5.90;55.70;;;;;;6079736;23;20139;-90
2022/03/06 11:39:30;;;;;;;15.67;8.57;;;5.50;57.70;;;;;;6078970;23;20151;-91
2022/03/06 11:42:06;;;;;;;10.53;4.90;;;5.60;58.50;;;;;;6079630;23;20166;-92
2022/03/06 11:45:09;;;;;;;7.03;4.67;;;6.00;58.40;;;;;;6079059;23;20186;-90
2022/03/06 11:47:47;;;;;;;8.20;4.03;;;6.00;58.40;;;;;;6103474;23;20150;-93
2022/03/06 11:50:24;;;;;;;6.80;4.63;;;6.30;57.20;;;;;;6079622;23;20154;-90
2022/03/06 11:52:55;;;;;;;6.73;4.97;;;6.50;57.70;;;;;;6078842;23;20147;-91
2022/03/06 11:55:35;;;;;;;8.73;4.20;;;6.00;58.10;;;;;;6079507;23;20198;-92
2022/03/06 11:58:01;;;;;;;4.77;3.40;;;5.70;58.10;;;;;;6079207;23;20181;-91
2022/03/06 12:00:32;;;;;;;10.03;3.80;;;5.80;57.70;;;;;;6079465;23;20154;-91
2022/03/06 12:02:59;;;;;;;4.20;3.00;;;5.90;59.20;;;;;;6079164;23;20154;-92
2022/03/06 12:05:45;;;;;;;9.13;3.50;;;5.70;57.10;;;;;;6079137;23;20189;-92
2022/03/06 12:08:12;;;;;;;4.87;3.40;;;5.80;58.90;;;;;;6079152;23;20135;-92
2022/03/06 12:10:47;;;;;;;6.40;3.73;;;5.70;56.70;;;;;;6072935;23;20180;-90
2022/03/06 12:13:26;;;;;;;6.57;4.03;;;5.60;57.40;;;;;;6072739;23;20147;-93
2022/03/06 12:16:04;;;;;;;5.97;3.57;;;5.50;58.10;;;;;;6073060;23;20135;-93
2022/03/06 12:18:39;;;;;;;4.37;3.60;;;5.20;57.50;;;;;;6073168;23;20245;-92
2022/03/06 12:21:23;;;;;;;14.60;9.20;;;5.20;58.40;;;;;;6071085;23;20146;-93
2022/03/06 12:24:09;;;;;;;10.90;5.03;;;5.20;59.40;;;;;;6072419;23;20193;-93
2022/03/06 12:26:48;;;;;;;9.37;4.80;;;5.30;59.30;;;;;;6072729;23;20135;-92
2022/03/06 12:29:52;;;;;;;6.20;3.87;;;5.50;59.50;;;;;;6072291;23;20138;-94
2022/03/06 12:32:26;;;;;;;19.30;6.80;;;5.70;57.30;;;;;;6069428;23;20213;-93
2022/03/06 12:35:13;;;;;;;7.37;4.17;;;5.70;58.00;;;;;;6070535;23;20185;-91
2022/03/06 12:37:53;;;;;;;8.03;5.20;;;5.70;57.10;;;;;;6071917;23;20555;-93
2022/03/06 12:40:34;;;;;;;14.03;7.77;;;5.30;57.90;;;;;;6071663;23;20148;-93
2022/03/06 12:43:08;;;;;;;7.13;5.23;;;5.10;59.10;;;;;;6072519;23;20152;-92
2022/03/06 12:45:42;;;;;;;5.50;3.63;;;5.20;59.30;;;;;;6072169;23;20170;-92
2022/03/06 12:48:08;;;;;;;17.97;10.37;;;5.50;58.90;;;;;;6072132;23;20217;-91
2022/03/06 12:50:42;;;;;;;11.03;4.37;;;5.60;58.90;;;;;;6064540;23;20174;-93
2022/03/06 12:53:15;;;;;;;6.77;4.13;;;6.10;59.40;;;;;;6047520;23;20173;-92
2022/03/06 12:55:40;;;;;;;6.63;3.33;;;6.70;57.80;;;;;;6059515;23;20184;-92
2022/03/06 12:58:06;;;;;;;16.83;6.03;;;7.20;55.90;;;;;;6057144;23;20199;-92
2022/03/06 13:00:34;;;;;;;14.17;7.73;;;7.20;54.40;;;;;;6058964;23;20155;-93
2022/03/06 13:03:12;;;;;;;8.37;4.07;;;7.40;55.30;;;;;;6059600;23;20647;-93
2022/03/06 13:05:38;;;;;;;30.17;17.03;;;7.50;53.70;;;;;;6077412;23;20198;-91
2022/03/06 13:08:13;;;;;;;9.93;7.33;;;7.80;53.90;;;;;;6076980;23;20167;-92
2022/03/06 13:10:39;;;;;;;12.13;8.13;;;8.00;52.70;;;;;;6082092;23;20166;-92
2022/03/06 13:13:09;;;;;;;10.90;6.60;;;8.10;50.10;;;;;;6085607;23;20170;-94
2022/03/06 13:15:52;;;;;;;12.47;7.43;;;8.10;50.90;;;;;;6089482;23;20482;-93
2022/03/06 13:18:40;;;;;;;7.07;3.87;;;7.80;52.00;;;;;;6095883;23;20242;-93